createdAt,value
2023-03-17T00:01:25.929Z,100913.44
2023-03-17T00:06:34.091Z,100911.34
2023-03-17T00:11:36.418Z,100912.47
2023-03-17T00:16:43.170Z,100914.25
2023-03-17T00:21:48.595Z,100923.59
2023-03-17T00:26:51.009Z,100929.94
2023-03-17T00:31:54.849Z,100920.63
2023-03-17T00:36:57.997Z,100919.38
2023-03-17T00:42:00.383Z,100930.66
2023-03-17T00:47:03.308Z,100927.97
2023-03-17T00:52:06.442Z,100932.47
2023-03-17T00:57:11.021Z,100932.16
2023-03-17T01:02:14.149Z,100942.91
2023-03-17T01:07:17.883Z,100940.63
2023-03-17T01:12:22.589Z,100950.34
2023-03-17T01:17:25.016Z,100949.94
2023-03-17T01:22:27.503Z,100960.34
2023-03-17T01:27:35.399Z,100955.75
2023-03-17T01:32:37.998Z,100956.78
2023-03-17T01:37:40.716Z,100960.78
2023-03-17T01:42:48.347Z,100967.72
2023-03-17T01:47:50.804Z,100976.22
2023-03-17T01:52:54.014Z,100981.25
2023-03-17T01:57:56.919Z,100979.25
2023-03-17T02:02:59.558Z,100979.69
2023-03-17T02:08:02.375Z,100985.63
2023-03-17T02:13:06.040Z,100980.06
2023-03-17T02:18:09.988Z,100981.09
2023-03-17T02:23:13.092Z,100983.31
2023-03-17T02:28:21.712Z,100973.66
2023-03-17T02:33:24.693Z,100978.53
2023-03-17T02:38:30.338Z,100976.81
2023-03-17T02:43:36.372Z,100977.19
2023-03-17T02:48:39.885Z,100976.97
2023-03-17T02:53:42.221Z,100985.38
2023-03-17T02:58:44.593Z,100985.16
2023-03-17T03:03:47.658Z,100998.34
2023-03-17T03:08:51.212Z,100999.19
2023-03-17T03:13:53.576Z,101000.22
2023-03-17T03:18:56.066Z,100995.22
2023-03-17T03:23:58.723Z,101004.75
2023-03-17T03:29:01.381Z,101004.75
2023-03-17T03:34:04.454Z,101015.47
2023-03-17T03:39:08.276Z,101012.50
2023-03-17T03:44:10.925Z,101012.97
2023-03-17T03:49:13.373Z,101020.75
2023-03-17T03:54:15.828Z,101028.13
2023-03-17T03:59:18.380Z,101031.50
2023-03-17T04:04:20.884Z,101022.63
2023-03-17T04:09:23.347Z,101035.84
2023-03-17T04:14:26.066Z,101030.59
2023-03-17T04:19:28.471Z,101034.75
2023-03-17T04:24:30.902Z,101058.38
2023-03-17T04:29:33.289Z,101050.78
2023-03-17T04:34:35.933Z,101044.78
2023-03-17T04:39:38.932Z,101050.78
2023-03-17T04:44:41.525Z,101047.34
2023-03-17T04:49:43.957Z,101038.09
2023-03-17T04:54:46.448Z,101049.13
2023-03-17T04:59:48.880Z,101043.75
2023-03-17T05:04:51.278Z,101055.94
2023-03-17T05:09:53.890Z,101062.63
2023-03-17T05:14:56.343Z,101053.16
2023-03-17T05:19:58.733Z,101052.25
2023-03-17T05:25:01.133Z,101049.44
2023-03-17T05:30:05.523Z,101042.16
2023-03-17T05:35:08.290Z,101049.94
2023-03-17T05:40:12.632Z,101046.50
2023-03-17T05:45:14.945Z,101049.75
2023-03-17T05:50:17.510Z,101050.41
2023-03-17T05:55:20.624Z,101051.34
2023-03-17T06:00:23.615Z,101050.59
2023-03-17T06:05:26.676Z,101051.91
2023-03-17T06:10:29.507Z,101040.59
2023-03-17T06:15:34.388Z,101028.03
2023-03-17T06:20:36.973Z,101024.59
2023-03-17T06:25:39.565Z,101030.47
2023-03-17T06:30:42.209Z,101039.84
2023-03-17T06:35:44.584Z,101030.72
2023-03-17T06:40:47.046Z,101052.78
2023-03-17T06:45:49.576Z,101057.16
2023-03-17T06:50:51.920Z,101049.50
2023-03-17T06:55:54.323Z,101037.88
2023-03-17T07:00:56.820Z,101046.78
2023-03-17T07:06:00.057Z,101034.09
2023-03-17T07:11:04.569Z,101046.94
2023-03-17T07:16:07.538Z,101037.66
2023-03-17T07:21:10.081Z,101050.97
2023-03-17T07:26:12.507Z,101055.84
2023-03-17T07:31:15.306Z,101061.41
2023-03-17T07:36:17.904Z,101040.97
2023-03-17T07:41:20.676Z,101045.09
2023-03-17T07:46:23.531Z,101056.13
2023-03-17T07:51:28.354Z,101060.94
2023-03-17T07:56:31.731Z,101060.91
2023-03-17T08:01:35.078Z,101047.47
2023-03-17T08:06:37.844Z,101058.19
2023-03-17T08:11:40.247Z,101055.34
2023-03-17T08:16:43.164Z,101056.09
2023-03-17T08:21:45.722Z,101059.88
2023-03-17T08:26:49.617Z,101053.19
2023-03-17T08:31:52.235Z,101053.56
2023-03-17T08:36:54.739Z,101044.25
2023-03-17T08:41:57.151Z,101052.88
2023-03-17T08:46:59.569Z,101047.28
2023-03-17T08:52:02.985Z,101053.28
2023-03-17T08:57:05.774Z,101051.09
2023-03-17T09:02:11.501Z,101057.28
2023-03-17T09:07:14.079Z,101051.41
2023-03-17T09:12:17.242Z,101046.16
2023-03-17T09:17:19.657Z,101039.16
2023-03-17T09:22:22.025Z,101043.66
2023-03-17T09:27:24.464Z,101035.09
2023-03-17T09:32:27.509Z,101025.38
2023-03-17T09:37:31.407Z,101024.72
2023-03-17T09:43:17.103Z,101019.63
2023-03-17T09:48:41.117Z,101027.28
2023-03-17T09:53:49.731Z,101025.81
2023-03-17T09:59:00.135Z,101032.09
2023-03-17T10:04:02.876Z,101026.41
2023-03-17T10:09:28.239Z,101030.88
2023-03-17T10:14:30.740Z,101018.91
2023-03-17T10:19:45.062Z,101008.72
2023-03-17T10:24:52.975Z,101013.28
2023-03-17T10:29:57.338Z,101005.81
2023-03-17T10:34:59.754Z,101003.38
2023-03-17T10:40:06.045Z,101005.47
2023-03-17T10:45:12.645Z,100993.75
2023-03-17T10:50:32.980Z,100986.84
2023-03-17T10:55:39.161Z,100983.13
2023-03-17T11:01:06.056Z,100981.28
2023-03-17T11:06:11.853Z,100989.09
2023-03-17T11:11:33.855Z,100985.09
2023-03-17T11:16:39.146Z,100988.63
2023-03-17T11:22:14.917Z,100975.66
2023-03-17T11:27:32.809Z,100979.94
2023-03-17T11:32:44.014Z,100967.81
2023-03-17T11:38:00.327Z,100979.72
2023-03-17T11:43:21.062Z,100974.63
2023-03-17T11:48:56.955Z,100987.28
2023-03-17T11:54:19.688Z,100981.28
2023-03-17T11:59:33.301Z,100991.06
2023-03-17T12:04:39.534Z,100982.78
2023-03-17T12:10:08.027Z,100983.06
2023-03-17T12:15:21.348Z,100991.78
2023-03-17T12:20:45.266Z,100986.06
2023-03-17T12:26:08.960Z,100983.78
2023-03-17T12:31:26.147Z,100999.84
2023-03-17T12:36:28.950Z,100995.59
2023-03-17T12:41:54.059Z,100994.50
2023-03-17T12:47:38.101Z,101005.97
2023-03-17T12:52:47.763Z,101000.16
2023-03-17T12:58:15.273Z,100981.91
2023-03-17T13:03:22.800Z,100980.78
2023-03-17T13:08:37.068Z,100992.75
2023-03-17T13:13:54.825Z,100999.88
2023-03-17T13:19:19.386Z,100992.59
2023-03-17T13:24:36.440Z,101004.56
2023-03-17T13:29:45.390Z,101005.03
2023-03-17T13:34:54.160Z,100992.63
2023-03-17T13:40:23.088Z,100997.94
2023-03-17T13:45:46.087Z,101000.09
2023-03-17T13:50:48.523Z,101017.59
2023-03-17T13:56:12.281Z,101018.25
2023-03-17T14:01:15.670Z,101022.13
2023-03-17T14:06:20.340Z,101017.38
2023-03-17T14:11:42.256Z,101017.97
2023-03-17T14:16:53.427Z,101022.41
2023-03-17T14:22:04.614Z,101026.91
2023-03-17T14:27:10.638Z,101029.22
2023-03-17T14:32:16.267Z,101040.47
2023-03-17T14:37:19.064Z,101043.16
2023-03-17T14:42:27.771Z,101040.31
2023-03-17T14:47:37.564Z,101057.13
2023-03-17T14:52:41.450Z,101049.25
2023-03-17T14:57:49.745Z,101062.16
2023-03-17T15:02:57.040Z,101059.69
2023-03-17T15:07:59.553Z,101067.59
2023-03-17T15:13:04.597Z,101070.53
2023-03-17T15:18:15.666Z,101081.66
2023-03-17T15:23:20.862Z,101085.03
2023-03-17T15:28:26.379Z,101085.91
2023-03-17T15:33:28.740Z,101095.22
2023-03-17T15:38:31.340Z,101094.25
2023-03-17T15:43:34.982Z,101102.66
2023-03-17T15:48:37.898Z,101110.63
2023-03-17T15:53:40.398Z,101108.47
2023-03-17T15:58:42.987Z,101105.97
2023-03-17T16:03:47.432Z,101112.44
2023-03-17T16:08:50.231Z,101118.03
2023-03-17T16:13:52.797Z,101122.03
2023-03-17T16:18:55.200Z,101117.22
2023-03-17T16:23:58.229Z,101118.38
2023-03-17T16:29:00.590Z,101115.25
2023-03-17T16:34:02.943Z,101119.22
2023-03-17T16:39:06.923Z,101122.19
2023-03-17T16:44:11.877Z,101124.31
2023-03-17T16:49:20.169Z,101130.59
2023-03-17T16:54:22.533Z,101134.06
2023-03-17T16:59:31.370Z,101138.34
2023-03-17T17:04:38.595Z,101134.59
2023-03-17T17:09:41.233Z,101132.75
2023-03-17T17:14:43.640Z,101139.03
2023-03-17T17:19:46.391Z,101137.38
2023-03-17T17:24:49.001Z,101141.50
2023-03-17T17:29:51.756Z,101141.16
2023-03-17T17:34:54.345Z,101143.00
2023-03-17T17:39:56.834Z,101146.13
2023-03-17T17:44:59.207Z,101145.28
2023-03-17T17:50:01.786Z,101137.56
2023-03-17T17:55:05.005Z,101143.00
2023-03-17T18:00:08.613Z,101148.59
2023-03-17T18:05:13.064Z,101140.03
2023-03-17T18:10:22.692Z,101146.09
2023-03-17T18:15:27.484Z,101145.25
2023-03-17T18:20:30.722Z,101145.34
2023-03-17T18:25:33.398Z,101139.06
2023-03-17T18:30:35.968Z,101131.31
2023-03-17T18:35:38.661Z,101144.50
2023-03-17T18:40:42.600Z,101153.38
2023-03-17T18:45:45.147Z,101152.53
2023-03-17T18:50:48.597Z,101153.66
2023-03-17T18:55:51.165Z,101152.84
2023-03-17T19:00:57.659Z,101149.72
2023-03-17T19:06:12.424Z,101153.03
2023-03-17T19:11:18.676Z,101145.59
2023-03-17T19:16:21.147Z,101155.28
2023-03-17T19:21:24.945Z,101151.84
2023-03-17T19:26:27.676Z,101151.00
2023-03-17T19:31:30.313Z,101156.28
2023-03-17T19:36:37.199Z,101149.25
2023-03-17T19:41:40.032Z,101157.31
2023-03-17T19:46:42.413Z,101158.97
2023-03-17T19:51:44.773Z,101158.16
2023-03-17T19:56:47.552Z,101152.72
2023-03-17T20:01:50.486Z,101143.97
2023-03-17T20:06:55.863Z,101140.69
2023-03-17T20:11:59.408Z,101136.41
2023-03-17T20:17:01.986Z,101134.63
2023-03-17T20:22:04.479Z,101138.41
2023-03-17T20:27:08.385Z,101137.28
2023-03-17T20:32:12.111Z,101143.72
2023-03-17T20:37:14.557Z,101146.50
2023-03-17T20:42:20.453Z,101142.22
2023-03-17T20:47:23.463Z,101145.53
2023-03-17T20:52:30.305Z,101136.75
2023-03-17T20:57:33.789Z,101141.88
2023-03-17T21:02:36.827Z,101153.38
2023-03-17T21:07:40.568Z,101153.19
2023-03-17T21:12:43.473Z,101155.13
2023-03-17T21:17:45.879Z,101150.38
2023-03-17T21:22:48.866Z,101153.34
2023-03-17T21:27:52.459Z,101154.13
2023-03-17T21:32:57.777Z,101163.00
2023-03-17T21:38:00.370Z,101152.66
2023-03-17T21:43:03.150Z,101168.59
2023-03-17T21:48:05.572Z,101189.13
2023-03-17T21:53:07.933Z,101187.84
2023-03-17T21:58:10.759Z,101187.66
2023-03-17T22:03:13.259Z,101181.34
2023-03-17T22:08:15.714Z,101184.47
2023-03-17T22:13:18.663Z,101190.69
2023-03-17T22:18:21.477Z,101175.53
2023-03-17T22:23:25.026Z,101170.38
2023-03-17T22:28:27.392Z,101135.63
2023-03-17T22:33:30.325Z,101129.19
2023-03-17T22:38:32.772Z,101125.75
2023-03-17T22:43:37.319Z,101116.97
2023-03-17T22:48:40.759Z,101134.47
2023-03-17T22:53:43.397Z,101154.53
2023-03-17T22:58:47.111Z,101170.81
2023-03-17T23:03:50.488Z,101183.88
2023-03-17T23:08:52.944Z,101175.47
2023-03-17T23:13:55.525Z,101194.47
2023-03-17T23:18:58.218Z,101170.59
2023-03-17T23:24:02.124Z,101175.22
2023-03-17T23:29:07.382Z,101168.28
2023-03-17T23:34:10.244Z,101166.84
2023-03-17T23:39:12.825Z,101167.50
2023-03-17T23:44:15.279Z,101161.16
2023-03-17T23:49:17.910Z,101163.66
2023-03-17T23:54:20.613Z,101149.38
2023-03-17T23:59:23.555Z,101146.88
